createdAt,value
2019-04-28T00:00:53.466Z,6.60
2019-04-28T00:03:22.149Z,6.50
2019-04-28T00:05:51.425Z,6.60
2019-04-28T00:08:20.850Z,6.60
2019-04-28T00:10:49.420Z,6.60
2019-04-28T00:13:18.044Z,6.50
2019-04-28T00:15:46.435Z,6.50
2019-04-28T00:18:14.872Z,6.60
2019-04-28T00:20:44.965Z,6.70
2019-04-28T00:23:17.516Z,6.70
2019-04-28T00:25:47.589Z,6.80
2019-04-28T00:28:16.017Z,6.70
2019-04-28T00:30:44.427Z,6.70
2019-04-28T00:33:12.937Z,6.60
2019-04-28T00:35:41.820Z,6.60
2019-04-28T00:38:11.523Z,6.50
2019-04-28T00:40:41.353Z,6.50
2019-04-28T00:43:10.845Z,6.50
2019-04-28T00:45:41.240Z,6.50
2019-04-28T00:48:10.928Z,6.60
2019-04-28T00:50:41.334Z,6.60
2019-04-28T00:53:11.602Z,6.50
2019-04-28T00:55:41.592Z,6.50
2019-04-28T00:58:10.901Z,6.40
2019-04-28T01:00:41.701Z,6.40
2019-04-28T01:03:11.710Z,6.30
2019-04-28T01:05:41.186Z,6.30
2019-04-28T01:08:10.988Z,6.30
2019-04-28T01:10:40.994Z,6.40
2019-04-28T01:13:11.602Z,6.30
2019-04-28T01:15:41.715Z,6.40
2019-04-28T01:18:11.795Z,6.40
2019-04-28T01:20:40.278Z,6.40
2019-04-28T01:23:10.364Z,6.40
2019-04-28T01:25:40.112Z,6.40
2019-04-28T01:28:09.845Z,6.50
2019-04-28T01:30:56.581Z,6.50
2019-04-28T01:33:29.538Z,6.50
2019-04-28T01:35:58.011Z,6.50
2019-04-28T01:38:26.437Z,6.50
2019-04-28T01:40:54.948Z,6.50
2019-04-28T01:43:23.440Z,6.50
2019-04-28T01:45:51.851Z,6.50
2019-04-28T01:48:21.818Z,6.50
2019-04-28T01:50:50.258Z,6.60
2019-04-28T01:53:19.929Z,6.60
2019-04-28T01:55:49.477Z,6.60
2019-04-28T01:58:20.425Z,6.60
2019-04-28T02:00:50.390Z,6.60
2019-04-28T02:03:20.569Z,6.60
2019-04-28T02:05:50.158Z,6.60
2019-04-28T02:08:20.285Z,6.60
2019-04-28T02:10:50.187Z,6.60
2019-04-28T02:13:19.838Z,6.70
2019-04-28T02:15:50.088Z,6.60
2019-04-28T02:18:19.939Z,6.70
2019-04-28T02:20:51.177Z,6.60
2019-04-28T02:23:30.088Z,6.60
2019-04-28T02:25:59.743Z,6.60
2019-04-28T02:28:29.588Z,6.60
2019-04-28T02:30:58.218Z,6.60
2019-04-28T02:33:26.637Z,6.60
2019-04-28T02:35:55.052Z,6.60
2019-04-28T02:38:23.483Z,6.60
2019-04-28T02:40:51.920Z,6.60
2019-04-28T02:43:21.049Z,6.60
2019-04-28T02:45:53.404Z,6.70
2019-04-28T02:48:22.454Z,6.70
2019-04-28T02:50:55.550Z,6.70
2019-04-28T02:53:33.238Z,6.70
2019-04-28T02:56:00.885Z,6.70
2019-04-28T02:58:31.226Z,6.70
2019-04-28T03:01:11.187Z,6.60
2019-04-28T03:03:30.784Z,6.60
2019-04-28T03:06:01.577Z,6.50
2019-04-28T03:08:30.610Z,6.50
2019-04-28T03:11:00.936Z,6.40
2019-04-28T03:13:31.246Z,6.40
2019-04-28T03:16:01.514Z,6.30
2019-04-28T03:18:32.521Z,6.20
2019-04-28T03:21:01.519Z,6.10
2019-04-28T03:23:31.386Z,5.90
2019-04-28T03:26:16.593Z,5.80
2019-04-28T03:29:02.925Z,5.70
2019-04-28T03:32:10.124Z,5.70
2019-04-28T03:34:22.899Z,5.60
2019-04-28T03:36:48.661Z,5.40
2019-04-28T03:39:17.072Z,5.30
2019-04-28T03:41:45.581Z,5.20
2019-04-28T03:44:16.977Z,5.10
2019-04-28T03:46:51.203Z,4.90
2019-04-28T03:49:35.469Z,4.70
2019-04-28T03:52:05.630Z,4.70
2019-04-28T03:54:34.259Z,4.60
2019-04-28T03:57:02.774Z,4.50
2019-04-28T03:59:31.331Z,4.50
2019-04-28T04:02:03.247Z,4.40
2019-04-28T04:04:32.222Z,4.40
2019-04-28T04:07:01.473Z,4.40
2019-04-28T04:09:31.821Z,4.50
2019-04-28T04:12:13.983Z,4.60
2019-04-28T04:15:04.041Z,4.50
2019-04-28T04:17:33.926Z,4.60
2019-04-28T04:20:02.330Z,4.60
2019-04-28T04:22:31.521Z,4.60
2019-04-28T04:25:01.262Z,4.60
2019-04-28T04:27:30.901Z,4.60
2019-04-28T04:30:01.726Z,4.70
2019-04-28T04:32:30.949Z,4.80
2019-04-28T04:35:00.700Z,4.90
2019-04-28T04:37:30.850Z,4.90
2019-04-28T04:40:01.346Z,5.00
2019-04-28T04:42:30.627Z,5.10
2019-04-28T04:45:00.526Z,5.10
2019-04-28T04:47:32.470Z,5.10
2019-04-28T04:50:00.290Z,5.10
2019-04-28T04:52:30.418Z,5.20
2019-04-28T04:55:01.219Z,5.30
2019-04-28T04:57:32.379Z,5.20
2019-04-28T05:00:00.236Z,5.20
2019-04-28T05:02:40.993Z,5.20
2019-04-28T05:05:14.034Z,5.20
2019-04-28T05:07:42.534Z,5.20
2019-04-28T05:10:11.125Z,5.20
2019-04-28T05:12:40.384Z,5.30
2019-04-28T05:15:10.389Z,5.30
2019-04-28T05:17:40.161Z,5.40
2019-04-28T05:20:09.883Z,5.60
2019-04-28T05:22:42.518Z,5.70
2019-04-28T05:25:12.020Z,5.80
2019-04-28T05:27:40.467Z,5.90
2019-04-28T05:30:10.404Z,6.10
2019-04-28T05:32:43.156Z,6.20
2019-04-28T05:35:10.232Z,6.30
2019-04-28T05:37:40.445Z,6.30
2019-04-28T05:40:10.466Z,6.40
2019-04-28T05:42:40.718Z,6.40
2019-04-28T05:45:10.349Z,6.40
2019-04-28T05:47:40.644Z,6.40
2019-04-28T05:50:10.771Z,6.40
2019-04-28T05:52:40.888Z,6.50
2019-04-28T05:55:11.214Z,6.60
2019-04-28T05:57:47.212Z,6.60
2019-04-28T06:00:26.860Z,6.70
2019-04-28T06:02:57.051Z,6.80
2019-04-28T06:05:25.522Z,6.90
2019-04-28T06:08:07.613Z,7.00
2019-04-28T06:10:36.038Z,7.10
2019-04-28T06:13:06.845Z,7.20
2019-04-28T06:15:35.377Z,7.20
2019-04-28T06:18:03.809Z,7.30
2019-04-28T06:20:32.293Z,7.30
2019-04-28T06:23:00.725Z,7.40
2019-04-28T06:25:29.142Z,7.40
2019-04-28T06:27:57.561Z,7.40
2019-04-28T06:30:25.976Z,7.40
2019-04-28T06:33:06.852Z,7.50
2019-04-28T06:35:24.541Z,7.50
2019-04-28T06:37:52.964Z,7.50
2019-04-28T06:40:21.382Z,7.50
2019-04-28T06:42:49.835Z,7.40
2019-04-28T06:45:18.248Z,7.40
2019-04-28T06:47:46.677Z,7.50
2019-04-28T06:50:15.232Z,7.60
2019-04-28T06:52:43.661Z,7.60
2019-04-28T06:55:12.246Z,7.70
2019-04-28T06:57:40.670Z,7.70
2019-04-28T07:00:09.438Z,7.80
2019-04-28T07:02:37.881Z,7.80
2019-04-28T07:05:07.243Z,8.00
2019-04-28T07:07:35.671Z,8.10
2019-04-28T07:10:06.532Z,8.10
2019-04-28T07:12:34.968Z,8.10
2019-04-28T07:15:04.309Z,8.20
2019-04-28T07:17:32.751Z,8.30
2019-04-28T07:20:02.784Z,8.40
2019-04-28T07:22:32.494Z,8.50
2019-04-28T07:25:00.908Z,8.40
2019-04-28T07:27:29.351Z,8.30
2019-04-28T07:29:59.404Z,8.20
2019-04-28T07:32:27.832Z,8.20
2019-04-28T07:34:56.248Z,8.30
2019-04-28T07:37:24.705Z,8.30
2019-04-28T07:39:53.143Z,8.30
2019-04-28T07:42:21.648Z,8.30
2019-04-28T07:44:50.170Z,8.20
2019-04-28T07:47:20.222Z,8.20
2019-04-28T07:49:48.655Z,8.10
2019-04-28T07:52:18.715Z,8.10
2019-04-28T07:54:47.164Z,8.20
2019-04-28T07:57:15.657Z,8.30
2019-04-28T07:59:44.085Z,8.40
2019-04-28T08:02:12.495Z,8.60
2019-04-28T08:04:40.941Z,8.70
2019-04-28T08:07:09.418Z,8.80
2019-04-28T08:09:37.870Z,8.90
2019-04-28T08:12:06.436Z,8.70
2019-04-28T08:14:34.861Z,8.80
2019-04-28T08:17:03.358Z,8.90
2019-04-28T08:19:31.779Z,9.20
2019-04-28T08:22:00.201Z,9.30
2019-04-28T08:24:28.625Z,9.50
2019-04-28T08:26:57.176Z,9.50
2019-04-28T08:29:25.681Z,9.40
2019-04-28T08:31:55.752Z,9.40
2019-04-28T08:34:24.181Z,9.60
2019-04-28T08:36:52.680Z,9.70
2019-04-28T08:39:23.511Z,9.90
2019-04-28T08:41:51.317Z,10.00
2019-04-28T08:44:19.736Z,9.80
2019-04-28T08:46:48.268Z,10.00
2019-04-28T08:49:16.710Z,10.00
2019-04-28T08:51:45.112Z,9.70
2019-04-28T08:54:13.622Z,9.60
2019-04-28T08:56:42.103Z,9.60
2019-04-28T08:59:10.516Z,9.60
2019-04-28T09:01:38.966Z,9.70
2019-04-28T09:04:15.077Z,9.70
2019-04-28T09:06:37.625Z,9.70
2019-04-28T09:09:07.823Z,9.80
2019-04-28T09:11:36.272Z,9.70
2019-04-28T09:14:04.688Z,9.60
2019-04-28T09:16:33.137Z,9.60
2019-04-28T09:19:02.044Z,9.50
2019-04-28T09:21:30.584Z,9.40
2019-04-28T09:23:58.982Z,9.40
2019-04-28T09:26:27.518Z,9.40
2019-04-28T09:28:56.006Z,9.40
2019-04-28T09:31:24.431Z,9.10
2019-04-28T09:33:52.956Z,9.00
2019-04-28T09:36:21.402Z,9.10
2019-04-28T09:38:50.296Z,9.00
2019-04-28T09:41:18.729Z,9.10
2019-04-28T09:44:03.676Z,9.30
2019-04-28T09:46:36.633Z,9.50
2019-04-28T09:49:05.285Z,9.60
2019-04-28T09:51:33.714Z,9.80
2019-04-28T09:54:02.308Z,10.00
2019-04-28T09:56:30.754Z,10.30
2019-04-28T09:58:59.252Z,10.50
2019-04-28T10:01:27.670Z,10.50
2019-04-28T10:03:56.100Z,10.50
2019-04-28T10:06:24.530Z,10.30
2019-04-28T10:08:52.969Z,10.20
2019-04-28T10:11:30.360Z,10.10
2019-04-28T10:13:51.719Z,10.00
2019-04-28T10:16:20.363Z,9.80
2019-04-28T10:18:48.805Z,9.90
2019-04-28T10:21:17.228Z,9.80
2019-04-28T10:23:45.665Z,9.90
2019-04-28T10:26:14.106Z,10.20
2019-04-28T10:28:42.593Z,10.50
2019-04-28T10:31:13.310Z,10.60
2019-04-28T10:33:42.930Z,10.50
2019-04-28T10:36:11.364Z,10.60
2019-04-28T10:38:41.453Z,10.70
2019-04-28T10:41:11.602Z,10.70
2019-04-28T10:43:40.041Z,10.80
2019-04-28T10:46:08.530Z,10.60
2019-04-28T10:48:37.153Z,10.20
2019-04-28T10:51:05.815Z,9.90
2019-04-28T10:53:34.257Z,9.90
2019-04-28T10:56:02.725Z,10.00
2019-04-28T10:58:31.125Z,9.80
2019-04-28T11:00:59.584Z,9.80
2019-04-28T11:03:28.001Z,9.80
2019-04-28T11:05:56.429Z,9.90
2019-04-28T11:08:43.180Z,9.80
2019-04-28T11:11:13.390Z,9.60
2019-04-28T11:13:41.909Z,9.40
2019-04-28T11:16:11.993Z,9.50
2019-04-28T11:18:40.423Z,9.70
2019-04-28T11:21:08.909Z,9.70
2019-04-28T11:23:37.337Z,9.70
2019-04-28T11:26:05.817Z,9.80
2019-04-28T11:28:34.250Z,10.00
2019-04-28T11:31:02.732Z,10.20
2019-04-28T11:33:35.848Z,10.10
2019-04-28T11:36:04.544Z,10.20
2019-04-28T11:38:32.961Z,10.30
2019-04-28T11:41:01.410Z,10.40
2019-04-28T11:43:29.818Z,10.60
2019-04-28T11:45:58.339Z,10.80
2019-04-28T11:48:26.939Z,11.00
2019-04-28T11:50:55.365Z,11.00
2019-04-28T11:53:23.865Z,11.20
2019-04-28T11:55:52.393Z,11.20
2019-04-28T11:58:20.812Z,11.30
2019-04-28T12:00:49.320Z,11.40
2019-04-28T12:03:18.082Z,11.40
2019-04-28T12:05:47.332Z,11.30
2019-04-28T12:08:15.935Z,11.30
2019-04-28T12:10:58.719Z,11.30
2019-04-28T12:13:28.793Z,11.30
2019-04-28T12:16:10.740Z,11.50
2019-04-28T12:18:43.765Z,11.70
2019-04-28T12:21:12.281Z,11.90
2019-04-28T12:23:40.773Z,11.80
2019-04-28T12:26:09.234Z,11.90
2019-04-28T12:28:37.655Z,12.00
2019-04-28T12:31:06.064Z,12.10
2019-04-28T12:33:34.504Z,12.20
2019-04-28T12:36:04.566Z,12.30
2019-04-28T12:38:33.006Z,12.50
2019-04-28T12:41:01.421Z,12.70
2019-04-28T12:43:29.874Z,12.80
2019-04-28T12:45:58.369Z,13.00
2019-04-28T12:48:26.903Z,13.00
2019-04-28T12:50:55.337Z,12.90
2019-04-28T12:53:23.813Z,13.00
2019-04-28T12:55:52.285Z,13.10
2019-04-28T12:58:20.834Z,13.00
2019-04-28T13:01:07.116Z,12.90
2019-04-28T13:03:53.411Z,12.60
2019-04-28T13:06:23.252Z,12.70
2019-04-28T13:08:51.779Z,12.70
2019-04-28T13:11:20.190Z,12.60
2019-04-28T13:13:48.637Z,12.40
2019-04-28T13:16:17.062Z,12.20
2019-04-28T13:18:45.496Z,12.30
2019-04-28T13:21:14.358Z,12.40
2019-04-28T13:23:42.904Z,12.30
2019-04-28T13:26:11.297Z,12.30
2019-04-28T13:28:39.737Z,12.40
2019-04-28T13:31:08.160Z,12.50
2019-04-28T13:33:36.594Z,12.50
2019-04-28T13:36:14.605Z,12.60
2019-04-28T13:38:35.351Z,12.70
2019-04-28T13:41:03.855Z,12.90
2019-04-28T13:43:32.316Z,13.00
2019-04-28T13:46:00.900Z,13.10
2019-04-28T13:48:29.351Z,13.20
2019-04-28T13:50:57.767Z,13.20
2019-04-28T13:53:26.221Z,13.30
2019-04-28T13:55:56.287Z,13.20
2019-04-28T13:58:26.427Z,13.20
2019-04-28T14:01:08.718Z,13.20
2019-04-28T14:03:41.794Z,13.30
2019-04-28T14:06:27.265Z,13.50
2019-04-28T14:08:45.000Z,13.70
2019-04-28T14:11:13.897Z,13.90
2019-04-28T14:13:42.347Z,14.00
2019-04-28T14:16:10.782Z,14.00
2019-04-28T14:18:39.184Z,14.10
2019-04-28T14:21:08.090Z,14.20
2019-04-28T14:23:36.604Z,14.30
2019-04-28T14:26:05.029Z,14.40
2019-04-28T14:28:33.520Z,14.50
2019-04-28T14:31:01.976Z,14.60
2019-04-28T14:33:30.425Z,14.70
2019-04-28T14:35:58.980Z,14.80
2019-04-28T14:38:27.489Z,14.90
2019-04-28T14:40:55.958Z,15.00
2019-04-28T14:43:24.432Z,15.30
2019-04-28T14:45:52.856Z,15.30
2019-04-28T14:48:21.369Z,15.20
2019-04-28T14:50:53.768Z,15.40
2019-04-28T14:53:22.243Z,15.80
2019-04-28T14:55:50.688Z,15.90
2019-04-28T14:58:19.097Z,15.90
2019-04-28T15:00:49.187Z,15.90
2019-04-28T15:03:18.886Z,16.30
2019-04-28T15:06:04.072Z,16.80
2019-04-28T15:08:34.119Z,17.60
2019-04-28T15:11:04.780Z,17.70
2019-04-28T15:13:33.355Z,17.80
2019-04-28T15:16:03.511Z,18.40
2019-04-28T15:18:31.956Z,18.00
2019-04-28T15:21:01.990Z,18.40
2019-04-28T15:23:30.438Z,18.80
2019-04-28T15:26:01.815Z,19.50
2019-04-28T15:28:30.285Z,19.10
2019-04-28T15:31:00.330Z,18.90
2019-04-28T15:33:28.796Z,18.90
2019-04-28T15:35:57.305Z,19.10
2019-04-28T15:38:25.785Z,18.70
2019-04-28T15:40:55.818Z,18.40
2019-04-28T15:43:24.331Z,17.90
2019-04-28T15:45:52.965Z,16.70
2019-04-28T15:48:21.480Z,15.70
2019-04-28T15:50:49.892Z,14.90
2019-04-28T15:53:19.876Z,14.40
2019-04-28T15:56:01.532Z,14.00
2019-04-28T15:58:33.736Z,13.70
2019-04-28T16:01:02.296Z,13.40
2019-04-28T16:03:30.782Z,13.30
2019-04-28T16:06:00.019Z,13.40
2019-04-28T16:08:28.643Z,13.30
2019-04-28T16:10:57.150Z,13.30
2019-04-28T16:13:25.604Z,13.30
2019-04-28T16:15:54.065Z,13.30
2019-04-28T16:18:22.522Z,13.40
2019-04-28T16:20:50.939Z,13.30
2019-04-28T16:23:19.384Z,12.90
2019-04-28T16:25:47.830Z,13.10
2019-04-28T16:28:16.425Z,13.50
2019-04-28T16:30:44.880Z,13.60
2019-04-28T16:33:14.932Z,13.40
2019-04-28T16:35:43.412Z,13.20
2019-04-28T16:38:11.872Z,12.90
2019-04-28T16:40:49.350Z,12.80
2019-04-28T16:43:22.348Z,12.50
2019-04-28T16:45:50.800Z,12.20
2019-04-28T16:48:20.805Z,12.00
2019-04-28T16:50:49.273Z,11.70
2019-04-28T16:53:17.678Z,11.60
2019-04-28T16:55:47.775Z,11.60
2019-04-28T16:58:17.822Z,11.40
2019-04-28T17:00:57.118Z,11.20
2019-04-28T17:03:26.921Z,11.20
2019-04-28T17:05:56.992Z,11.30
2019-04-28T17:08:25.409Z,11.30
2019-04-28T17:10:53.861Z,11.10
2019-04-28T17:13:25.149Z,11.00
2019-04-28T17:15:53.592Z,11.00
2019-04-28T17:18:22.028Z,11.00
2019-04-28T17:20:50.463Z,10.90
2019-04-28T17:23:18.884Z,10.80
2019-04-28T17:25:47.341Z,10.90
2019-04-28T17:28:15.896Z,10.90
2019-04-28T17:30:45.872Z,10.80
2019-04-28T17:33:14.293Z,10.60
2019-04-28T17:35:42.720Z,10.60
2019-04-28T17:38:11.133Z,10.60
2019-04-28T17:40:39.709Z,10.50
2019-04-28T17:43:08.389Z,10.40
2019-04-28T17:45:36.981Z,10.30
2019-04-28T17:48:07.036Z,10.30
2019-04-28T17:50:36.574Z,10.30
2019-04-28T17:53:05.142Z,10.40
2019-04-28T17:55:33.609Z,10.40
2019-04-28T17:58:02.025Z,10.40
2019-04-28T18:00:32.121Z,10.30
2019-04-28T18:03:08.260Z,10.20
2019-04-28T18:05:53.494Z,10.20
2019-04-28T18:08:21.919Z,10.10
2019-04-28T18:10:53.433Z,10.00
2019-04-28T18:13:21.862Z,9.90
2019-04-28T18:15:54.166Z,9.80
2019-04-28T18:18:33.102Z,9.70
2019-04-28T18:21:01.561Z,9.60
2019-04-28T18:23:29.977Z,9.50
2019-04-28T18:25:58.401Z,9.40
2019-04-28T18:28:28.432Z,9.40
2019-04-28T18:31:14.262Z,9.30
2019-04-28T18:34:00.684Z,9.20
2019-04-28T18:36:36.617Z,9.10
2019-04-28T18:39:09.785Z,9.00
2019-04-28T18:41:51.626Z,8.90
2019-04-28T18:44:23.844Z,8.80
2019-04-28T18:46:52.289Z,8.80
2019-04-28T18:49:20.716Z,8.80
2019-04-28T18:51:49.120Z,8.90
2019-04-28T18:54:21.361Z,8.90
2019-04-28T18:56:49.781Z,8.70
2019-04-28T18:59:18.240Z,8.40
2019-04-28T19:02:00.257Z,8.20
2019-04-28T19:04:28.704Z,8.00
2019-04-28T19:07:04.917Z,7.90
2019-04-28T19:09:34.566Z,7.80
2019-04-28T19:12:13.344Z,7.70
2019-04-28T19:14:43.536Z,7.50
2019-04-28T19:17:16.611Z,7.50
2019-04-28T19:19:45.049Z,7.30
2019-04-28T19:22:13.477Z,7.20
2019-04-28T19:24:41.953Z,7.20
2019-04-28T19:27:10.439Z,7.10
2019-04-28T19:29:38.856Z,7.00
2019-04-28T19:32:07.376Z,6.90
2019-04-28T19:34:35.897Z,6.90
2019-04-28T19:37:04.457Z,6.90
2019-04-28T19:39:32.937Z,6.90
2019-04-28T19:42:01.391Z,6.80
2019-04-28T19:44:29.840Z,6.70
2019-04-28T19:46:58.279Z,6.60
2019-04-28T19:49:26.725Z,6.50
2019-04-28T19:51:55.132Z,6.40
2019-04-28T19:54:25.305Z,6.40
2019-04-28T19:57:00.906Z,6.30
2019-04-28T19:59:31.034Z,6.30
2019-04-28T20:02:02.149Z,6.30
2019-04-28T20:04:29.712Z,6.30
2019-04-28T20:06:58.142Z,6.20
2019-04-28T20:09:26.594Z,6.20
2019-04-28T20:11:55.053Z,6.10
2019-04-28T20:14:23.573Z,6.10
2019-04-28T20:16:52.072Z,6.10
2019-04-28T20:19:20.541Z,6.10
2019-04-28T20:21:48.982Z,6.00
2019-04-28T20:24:19.514Z,6.00
2019-04-28T20:26:47.556Z,5.90
2019-04-28T20:29:15.965Z,5.90
2019-04-28T20:31:44.396Z,5.80
2019-04-28T20:34:12.812Z,5.80
2019-04-28T20:36:59.139Z,5.70
2019-04-28T20:39:29.178Z,5.60
2019-04-28T20:41:59.266Z,5.60
2019-04-28T20:44:27.696Z,5.60
2019-04-28T20:46:56.169Z,5.60
2019-04-28T20:49:24.627Z,5.60
2019-04-28T20:51:53.130Z,5.50
2019-04-28T20:54:21.549Z,5.40
2019-04-28T20:56:49.995Z,5.40
2019-04-28T20:59:18.413Z,5.40
2019-04-28T21:01:46.861Z,5.40
2019-04-28T21:04:15.280Z,5.40
2019-04-28T21:06:43.716Z,5.40
2019-04-28T21:09:12.132Z,5.40
2019-04-28T21:11:40.577Z,5.40
2019-04-28T21:14:09.013Z,5.40
2019-04-28T21:16:37.437Z,5.20
2019-04-28T21:19:05.969Z,5.10
2019-04-28T21:21:34.492Z,5.10
2019-04-28T21:24:02.920Z,5.00
2019-04-28T21:26:31.337Z,5.00
2019-04-28T21:28:59.769Z,5.00
2019-04-28T21:31:28.200Z,4.90
2019-04-28T21:33:56.665Z,4.80
2019-04-28T21:36:25.134Z,4.80
2019-04-28T21:38:53.641Z,4.70
2019-04-28T21:41:22.051Z,4.60
2019-04-28T21:44:06.986Z,4.50
2019-04-28T21:46:42.828Z,4.50
2019-04-28T21:49:18.922Z,4.40
2019-04-28T21:51:47.336Z,4.40
2019-04-28T21:54:15.761Z,4.30
2019-04-28T21:56:44.190Z,4.30
2019-04-28T21:59:12.620Z,4.30
2019-04-28T22:01:41.293Z,4.20
2019-04-28T22:04:09.733Z,4.30
2019-04-28T22:06:38.183Z,4.30
2019-04-28T22:09:07.918Z,4.20
2019-04-28T22:11:36.343Z,4.20
2019-04-28T22:14:05.127Z,4.10
2019-04-28T22:16:33.605Z,4.00
2019-04-28T22:19:02.055Z,4.00
2019-04-28T22:21:30.489Z,3.90
2019-04-28T22:24:12.497Z,3.90
2019-04-28T22:26:51.553Z,3.90
2019-04-28T22:29:19.987Z,3.90
2019-04-28T22:31:48.428Z,3.80
2019-04-28T22:34:17.730Z,3.80
2019-04-28T22:36:46.600Z,3.70
2019-04-28T22:39:15.907Z,3.70
2019-04-28T22:41:44.864Z,3.70
2019-04-28T22:44:13.281Z,3.70
2019-04-28T22:46:41.700Z,3.60
2019-04-28T22:49:10.178Z,3.60
2019-04-28T22:51:38.655Z,3.60
2019-04-28T22:54:08.724Z,3.60
2019-04-28T22:56:41.292Z,3.60
2019-04-28T22:59:23.560Z,3.60
2019-04-28T23:01:53.638Z,3.60
2019-04-28T23:04:26.408Z,3.60
2019-04-28T23:06:54.551Z,3.50
2019-04-28T23:09:23.294Z,3.40
2019-04-28T23:11:51.722Z,3.40
2019-04-28T23:14:20.131Z,3.40
2019-04-28T23:16:48.758Z,3.40
2019-04-28T23:19:18.884Z,3.30
2019-04-28T23:22:00.805Z,3.30
2019-04-28T23:24:29.227Z,3.30
2019-04-28T23:26:57.731Z,3.30
2019-04-28T23:29:26.177Z,3.30
2019-04-28T23:31:54.622Z,3.30
2019-04-28T23:34:23.002Z,3.40
2019-04-28T23:36:51.458Z,3.30
2019-04-28T23:39:19.846Z,3.30
2019-04-28T23:41:50.027Z,3.20
2019-04-28T23:44:18.473Z,3.10
2019-04-28T23:46:54.374Z,3.10
2019-04-28T23:49:22.876Z,3.10
2019-04-28T23:51:52.986Z,3.10
2019-04-28T23:54:21.378Z,3.00
2019-04-28T23:56:49.772Z,3.00
2019-04-28T23:59:18.233Z,2.90
